createdAt,value
2018-07-12T00:00:11.895Z,7.50
2018-07-12T00:00:44.473Z,8.93
2018-07-12T00:01:17.045Z,8.05
2018-07-12T00:01:49.572Z,7.25
2018-07-12T00:02:22.671Z,8.18
2018-07-12T00:02:55.323Z,8.05
2018-07-12T00:03:27.892Z,7.00
2018-07-12T00:04:00.473Z,8.28
2018-07-12T00:04:33.012Z,8.10
2018-07-12T00:05:05.587Z,9.73
2018-07-12T00:05:38.805Z,10.70
2018-07-12T00:06:11.548Z,8.90
2018-07-12T00:06:44.187Z,8.35
2018-07-12T00:07:16.755Z,8.05
2018-07-12T00:07:49.834Z,11.68
2018-07-12T00:08:22.391Z,9.40
2018-07-12T00:08:55.072Z,8.70
2018-07-12T00:09:27.618Z,7.62
2018-07-12T00:10:00.191Z,9.08
2018-07-12T00:10:33.056Z,8.75
2018-07-12T00:11:05.631Z,7.90
2018-07-12T00:11:38.179Z,8.08
2018-07-12T00:12:10.754Z,9.23
2018-07-12T00:12:43.323Z,12.13
2018-07-12T00:13:16.096Z,8.68
2018-07-12T00:13:48.656Z,10.38
2018-07-12T00:14:21.311Z,8.48
2018-07-12T00:14:53.874Z,8.93
2018-07-12T00:15:26.420Z,9.70
2018-07-12T00:15:58.967Z,10.23
2018-07-12T00:16:31.514Z,7.53
2018-07-12T00:17:04.142Z,7.90
2018-07-12T00:17:36.914Z,8.65
2018-07-12T00:18:09.607Z,9.70
2018-07-12T00:18:42.587Z,7.80
2018-07-12T00:19:15.531Z,7.50
2018-07-12T00:19:48.431Z,8.53
2018-07-12T00:20:20.990Z,10.35
2018-07-12T00:20:53.850Z,8.83
2018-07-12T00:21:26.423Z,10.00
2018-07-12T00:21:59.077Z,7.45
2018-07-12T00:22:31.641Z,7.90
2018-07-12T00:23:04.525Z,9.60
2018-07-12T00:23:37.399Z,8.63
2018-07-12T00:24:10.165Z,12.35
2018-07-12T00:24:43.003Z,10.63
2018-07-12T00:25:15.888Z,7.70
2018-07-12T00:25:48.430Z,7.35
2018-07-12T00:26:21.004Z,8.55
2018-07-12T00:26:53.558Z,10.93
2018-07-12T00:27:26.451Z,9.55
2018-07-12T00:27:59.324Z,7.70
2018-07-12T00:28:31.875Z,7.72
2018-07-12T00:29:04.759Z,6.62
2018-07-12T00:29:37.341Z,8.68
2018-07-12T00:30:10.181Z,7.95
2018-07-12T00:30:42.710Z,8.30
2018-07-12T00:31:15.334Z,8.05
2018-07-12T00:31:48.187Z,7.65
2018-07-12T00:32:20.850Z,8.53
2018-07-12T00:32:53.615Z,7.33
2018-07-12T00:33:26.160Z,9.40
2018-07-12T00:33:58.727Z,7.85
2018-07-12T00:34:31.620Z,8.20
2018-07-12T00:35:04.273Z,9.70
2018-07-12T00:35:37.037Z,9.53
2018-07-12T00:36:09.699Z,8.28
2018-07-12T00:36:42.270Z,7.45
2018-07-12T00:37:14.844Z,9.70
2018-07-12T00:37:47.610Z,9.50
2018-07-12T00:38:20.475Z,10.10
2018-07-12T00:38:53.065Z,8.95
2018-07-12T00:39:25.604Z,8.70
2018-07-12T00:39:58.173Z,7.22
2018-07-12T00:40:30.857Z,11.40
2018-07-12T00:41:03.609Z,9.05
2018-07-12T00:41:36.481Z,8.48
2018-07-12T00:42:09.354Z,7.28
2018-07-12T00:42:41.939Z,6.45
2018-07-12T00:43:14.479Z,7.45
2018-07-12T00:43:47.114Z,7.17
2018-07-12T00:44:19.724Z,7.67
2018-07-12T00:44:52.466Z,6.95
2018-07-12T00:45:25.019Z,7.00
2018-07-12T00:45:57.935Z,8.05
2018-07-12T00:46:30.475Z,10.98
2018-07-12T00:47:03.364Z,7.92
2018-07-12T00:47:36.223Z,6.28
2018-07-12T00:48:08.778Z,7.85
2018-07-12T00:48:41.488Z,6.87
2018-07-12T00:49:14.524Z,9.20
2018-07-12T00:49:47.239Z,7.40
2018-07-12T00:50:19.952Z,6.70
2018-07-12T00:50:52.519Z,8.90
2018-07-12T00:51:25.403Z,7.47
2018-07-12T00:51:57.950Z,8.65
2018-07-12T00:52:30.540Z,8.65
2018-07-12T00:53:03.096Z,8.93
2018-07-12T00:53:35.762Z,8.20
2018-07-12T00:54:08.536Z,7.30
2018-07-12T00:54:41.721Z,7.08
2018-07-12T00:55:14.582Z,8.05
2018-07-12T00:55:47.587Z,8.25
2018-07-12T00:56:20.431Z,8.68
2018-07-12T00:56:52.992Z,6.87
2018-07-12T00:57:25.544Z,6.90
2018-07-12T00:57:58.327Z,7.33
2018-07-12T00:58:30.988Z,7.20
2018-07-12T00:59:03.752Z,7.95
2018-07-12T00:59:36.631Z,7.58
2018-07-12T01:00:09.505Z,6.62
2018-07-12T01:00:42.361Z,7.25
2018-07-12T01:01:15.050Z,9.85
2018-07-12T01:01:47.863Z,7.08
2018-07-12T01:02:20.384Z,7.37
2018-07-12T01:02:53.055Z,12.58
2018-07-12T01:03:25.592Z,6.85
2018-07-12T01:03:58.162Z,6.58
2018-07-12T01:04:30.715Z,11.20
2018-07-12T01:05:03.491Z,8.60
2018-07-12T01:05:36.487Z,7.50
2018-07-12T01:06:09.037Z,7.33
2018-07-12T01:06:41.802Z,6.75
2018-07-12T01:07:14.504Z,8.95
2018-07-12T01:07:47.560Z,7.22
2018-07-12T01:08:20.095Z,6.65
2018-07-12T01:08:52.774Z,7.33
2018-07-12T01:09:25.356Z,6.78
2018-07-12T01:09:57.898Z,6.62
2018-07-12T01:10:30.672Z,7.20
2018-07-12T01:11:03.338Z,7.08
2018-07-12T01:11:36.116Z,7.85
2018-07-12T01:12:08.662Z,7.08
2018-07-12T01:12:41.199Z,7.70
2018-07-12T01:13:14.738Z,7.70
2018-07-12T01:13:47.279Z,7.35
2018-07-12T01:14:20.146Z,7.80
2018-07-12T01:14:53.018Z,8.40
2018-07-12T01:15:25.566Z,9.20
2018-07-12T01:15:58.147Z,7.60
2018-07-12T01:16:31.027Z,12.20
2018-07-12T01:17:03.575Z,8.75
2018-07-12T01:17:36.464Z,7.53
2018-07-12T01:18:09.162Z,6.85
2018-07-12T01:18:41.739Z,8.30
2018-07-12T01:19:14.547Z,7.40
2018-07-12T01:19:47.133Z,8.25
2018-07-12T01:20:19.908Z,6.87
2018-07-12T01:20:52.749Z,6.53
2018-07-12T01:21:25.630Z,6.90
2018-07-12T01:21:58.411Z,6.83
2018-07-12T01:22:31.173Z,8.48
2018-07-12T01:23:03.954Z,7.58
2018-07-12T01:23:36.605Z,6.92
2018-07-12T01:24:09.412Z,8.03
2018-07-12T01:24:41.975Z,10.80
2018-07-12T01:25:14.829Z,7.15
2018-07-12T01:25:47.374Z,8.78
2018-07-12T01:26:19.941Z,6.83
2018-07-12T01:26:52.828Z,7.03
2018-07-12T01:27:25.459Z,8.63
2018-07-12T01:27:58.043Z,7.40
2018-07-12T01:28:30.636Z,7.08
2018-07-12T01:29:03.190Z,8.80
2018-07-12T01:29:35.970Z,6.10
2018-07-12T01:30:08.532Z,6.58
2018-07-12T01:30:41.369Z,7.40
2018-07-12T01:31:14.244Z,9.25
2018-07-12T01:31:47.130Z,8.18
2018-07-12T01:32:19.674Z,6.42
2018-07-12T01:32:52.210Z,6.80
2018-07-12T01:33:24.807Z,7.50
2018-07-12T01:33:57.508Z,6.35
2018-07-12T01:34:30.371Z,7.08
2018-07-12T01:35:02.945Z,7.47
2018-07-12T01:35:35.994Z,6.55
2018-07-12T01:36:08.663Z,6.50
2018-07-12T01:36:41.241Z,9.08
2018-07-12T01:37:13.800Z,6.80
2018-07-12T01:37:46.363Z,8.90
2018-07-12T01:38:18.930Z,7.87
2018-07-12T01:38:51.481Z,8.73
2018-07-12T01:39:24.064Z,6.12
2018-07-12T01:39:56.829Z,9.73
2018-07-12T01:40:29.387Z,6.15
2018-07-12T01:41:02.253Z,7.15
2018-07-12T01:41:34.787Z,7.47
2018-07-12T01:42:07.708Z,6.83
2018-07-12T01:42:40.276Z,7.67
2018-07-12T01:43:13.128Z,6.42
2018-07-12T01:43:45.796Z,6.80
2018-07-12T01:44:18.342Z,6.97
2018-07-12T01:44:51.115Z,8.48
2018-07-12T01:45:23.986Z,6.15
2018-07-12T01:45:56.562Z,8.90
2018-07-12T01:46:29.101Z,9.30
2018-07-12T01:47:01.797Z,8.83
2018-07-12T01:47:34.375Z,7.67
2018-07-12T01:48:07.124Z,6.70
2018-07-12T01:48:39.999Z,7.92
2018-07-12T01:49:12.671Z,10.63
2018-07-12T01:49:45.227Z,5.87
2018-07-12T01:50:17.895Z,6.75
2018-07-12T01:50:50.438Z,8.05
2018-07-12T01:51:23.218Z,8.68
2018-07-12T01:51:55.976Z,8.63
2018-07-12T01:52:28.552Z,6.53
2018-07-12T01:53:01.223Z,7.33
2018-07-12T01:53:33.803Z,7.92
2018-07-12T01:54:06.355Z,6.20
2018-07-12T01:54:38.943Z,6.28
2018-07-12T01:55:11.999Z,6.37
2018-07-12T01:55:44.563Z,6.90
2018-07-12T01:56:17.124Z,11.28
2018-07-12T01:56:49.799Z,6.70
2018-07-12T01:57:22.424Z,8.45
2018-07-12T01:57:55.122Z,8.38
2018-07-12T01:58:28.002Z,7.28
2018-07-12T01:59:00.564Z,7.25
2018-07-12T01:59:33.122Z,8.45
2018-07-12T02:00:05.991Z,6.53
2018-07-12T02:00:39.350Z,6.97
2018-07-12T02:01:12.039Z,6.55
2018-07-12T02:01:44.708Z,7.33
2018-07-12T02:02:17.294Z,6.35
2018-07-12T02:02:49.839Z,9.23
2018-07-12T02:03:22.603Z,8.93
2018-07-12T02:03:55.471Z,6.47
2018-07-12T02:04:28.047Z,8.50
2018-07-12T02:05:00.598Z,8.55
2018-07-12T02:05:33.396Z,7.60
2018-07-12T02:06:06.168Z,7.03
2018-07-12T02:06:38.899Z,7.12
2018-07-12T02:07:11.587Z,9.65
2018-07-12T02:07:44.474Z,6.62
2018-07-12T02:08:17.515Z,9.08
2018-07-12T02:08:50.395Z,7.62
2018-07-12T02:09:22.950Z,8.70
2018-07-12T02:09:55.647Z,7.42
2018-07-12T02:10:29.028Z,9.43
2018-07-12T02:11:01.563Z,6.85
2018-07-12T02:11:34.436Z,8.00
2018-07-12T02:12:06.998Z,7.30
2018-07-12T02:12:39.559Z,8.85
2018-07-12T02:13:12.248Z,8.33
2018-07-12T02:13:44.775Z,8.73
2018-07-12T02:14:17.338Z,9.48
2018-07-12T02:14:49.980Z,10.10
2018-07-12T02:15:22.795Z,8.15
2018-07-12T02:15:56.153Z,7.37
2018-07-12T02:16:29.041Z,8.08
2018-07-12T02:17:01.639Z,9.00
2018-07-12T02:17:34.495Z,6.65
2018-07-12T02:18:07.044Z,7.72
2018-07-12T02:18:39.735Z,8.33
2018-07-12T02:19:12.815Z,7.67
2018-07-12T02:19:45.394Z,8.43
2018-07-12T02:20:18.011Z,7.08
2018-07-12T02:20:50.795Z,8.95
2018-07-12T02:21:23.444Z,8.08
2018-07-12T02:21:56.220Z,7.10
2018-07-12T02:22:28.782Z,9.90
2018-07-12T02:23:01.343Z,11.20
2018-07-12T02:23:34.251Z,8.23
2018-07-12T02:24:07.103Z,10.45
2018-07-12T02:24:39.797Z,7.15
2018-07-12T02:25:12.343Z,8.03
2018-07-12T02:25:45.177Z,7.90
2018-07-12T02:26:17.789Z,9.60
2018-07-12T02:26:50.556Z,8.40
2018-07-12T02:27:23.106Z,12.73
2018-07-12T02:27:55.666Z,9.80
2018-07-12T02:28:28.233Z,7.50
2018-07-12T02:29:00.791Z,7.97
2018-07-12T02:29:33.336Z,8.70
2018-07-12T02:30:05.923Z,8.20
2018-07-12T02:30:38.482Z,9.25
2018-07-12T02:31:11.050Z,7.92
2018-07-12T02:31:43.583Z,8.00
2018-07-12T02:32:16.185Z,9.80
2018-07-12T02:32:48.732Z,8.60
2018-07-12T02:33:21.278Z,8.40
2018-07-12T02:33:53.854Z,8.65
2018-07-12T02:34:26.387Z,9.35
2018-07-12T02:34:59.047Z,8.80
2018-07-12T02:35:31.573Z,8.35
2018-07-12T02:36:04.144Z,9.43
2018-07-12T02:36:36.680Z,8.38
2018-07-12T02:37:09.251Z,12.28
2018-07-12T02:37:41.828Z,9.78
2018-07-12T02:38:14.389Z,8.70
2018-07-12T02:38:46.941Z,9.88
2018-07-12T02:39:19.491Z,12.23
2018-07-12T02:39:52.059Z,9.60
2018-07-12T02:40:24.606Z,11.90
2018-07-12T02:40:57.138Z,12.03
2018-07-12T02:41:29.710Z,16.67
2018-07-12T02:42:02.265Z,10.65
2018-07-12T02:42:34.834Z,12.37
2018-07-12T02:43:07.400Z,15.20
2018-07-12T02:43:40.018Z,12.18
2018-07-12T02:44:12.565Z,12.20
2018-07-12T02:44:45.111Z,16.57
2018-07-12T02:45:17.694Z,10.82
2018-07-12T02:45:50.257Z,12.50
2018-07-12T02:46:22.826Z,15.20
2018-07-12T02:46:55.402Z,12.23
2018-07-12T02:47:27.968Z,14.85
2018-07-12T02:48:00.533Z,17.15
2018-07-12T02:48:33.076Z,11.73
2018-07-12T02:49:05.619Z,18.27
2018-07-12T02:49:38.234Z,12.45
2018-07-12T02:50:10.791Z,12.13
2018-07-12T02:50:43.488Z,10.63
2018-07-12T02:51:16.056Z,10.78
2018-07-12T02:51:48.714Z,9.25
2018-07-12T02:52:21.259Z,10.08
2018-07-12T02:52:53.799Z,12.20
2018-07-12T02:53:26.491Z,11.00
2018-07-12T02:53:59.023Z,15.30
2018-07-12T02:54:31.608Z,14.38
2018-07-12T02:55:04.203Z,11.55
2018-07-12T02:55:36.767Z,13.35
2018-07-12T02:56:09.390Z,9.90
2018-07-12T02:56:42.187Z,10.78
2018-07-12T02:57:14.724Z,9.75
2018-07-12T02:57:47.313Z,9.50
2018-07-12T02:58:19.984Z,10.80
2018-07-12T02:58:52.570Z,7.97
2018-07-12T02:59:25.307Z,13.53
2018-07-12T02:59:57.891Z,10.63
2018-07-12T03:00:30.452Z,9.20
2018-07-12T03:01:03.021Z,8.88
2018-07-12T03:01:35.687Z,9.08
2018-07-12T03:02:08.245Z,10.45
2018-07-12T03:02:40.995Z,9.75
2018-07-12T03:03:13.543Z,9.85
2018-07-12T03:03:46.082Z,8.03
2018-07-12T03:04:18.710Z,12.70
2018-07-12T03:04:51.291Z,11.08
2018-07-12T03:05:23.847Z,10.20
2018-07-12T03:05:56.394Z,8.80
2018-07-12T03:06:28.955Z,8.33
2018-07-12T03:07:01.526Z,8.45
2018-07-12T03:07:34.125Z,9.78
2018-07-12T03:08:06.752Z,10.58
2018-07-12T03:08:39.312Z,13.65
2018-07-12T03:09:12.083Z,10.35
2018-07-12T03:09:44.615Z,7.60
2018-07-12T03:10:17.530Z,9.75
2018-07-12T03:10:50.127Z,13.05
2018-07-12T03:11:22.693Z,8.73
2018-07-12T03:11:55.328Z,8.83
2018-07-12T03:12:28.219Z,10.63
2018-07-12T03:13:01.314Z,9.10
2018-07-12T03:13:34.254Z,9.75
2018-07-12T03:14:07.238Z,9.70
2018-07-12T03:14:39.927Z,9.13
2018-07-12T03:15:12.480Z,9.33
2018-07-12T03:15:45.465Z,11.03
2018-07-12T03:16:18.171Z,10.00
2018-07-12T03:16:50.804Z,12.15
2018-07-12T03:17:23.459Z,9.10
2018-07-12T03:17:57.364Z,8.98
2018-07-12T03:18:30.189Z,8.58
2018-07-12T03:19:02.959Z,10.88
2018-07-12T03:19:35.985Z,9.00
2018-07-12T03:20:08.581Z,9.73
2018-07-12T03:20:41.123Z,9.05
2018-07-12T03:21:13.663Z,9.80
2018-07-12T03:21:46.216Z,9.30
2018-07-12T03:22:18.818Z,8.63
2018-07-12T03:22:51.409Z,8.65
2018-07-12T03:23:23.992Z,12.10
2018-07-12T03:23:56.560Z,9.35
2018-07-12T03:24:29.119Z,10.78
2018-07-12T03:25:01.664Z,9.80
2018-07-12T03:25:34.263Z,9.85
2018-07-12T03:26:06.790Z,8.68
2018-07-12T03:26:39.334Z,10.98
2018-07-12T03:27:11.911Z,10.23
2018-07-12T03:27:44.480Z,9.98
2018-07-12T03:28:17.046Z,10.82
2018-07-12T03:28:49.972Z,7.10
2018-07-12T03:29:22.526Z,15.93
2018-07-12T03:29:55.067Z,8.68
2018-07-12T03:30:27.609Z,9.28
2018-07-12T03:31:00.172Z,9.45
2018-07-12T03:31:32.732Z,9.93
2018-07-12T03:32:05.302Z,10.50
2018-07-12T03:32:37.867Z,8.28
2018-07-12T03:33:10.416Z,8.95
2018-07-12T03:33:42.976Z,7.75
2018-07-12T03:34:15.531Z,9.80
2018-07-12T03:34:48.094Z,8.30
2018-07-12T03:35:20.645Z,9.05
2018-07-12T03:35:53.368Z,8.48
2018-07-12T03:36:25.932Z,7.92
2018-07-12T03:36:58.567Z,9.98
2018-07-12T03:37:31.118Z,12.18
2018-07-12T03:38:03.721Z,9.23
2018-07-12T03:38:36.261Z,7.50
2018-07-12T03:39:08.836Z,12.30
2018-07-12T03:39:41.499Z,8.70
2018-07-12T03:40:14.093Z,8.05
2018-07-12T03:40:46.667Z,8.18
2018-07-12T03:41:19.216Z,9.43
2018-07-12T03:41:51.768Z,9.90
2018-07-12T03:42:24.327Z,7.33
2018-07-12T03:42:56.918Z,7.30
2018-07-12T03:43:29.467Z,7.30
2018-07-12T03:44:02.023Z,6.90
2018-07-12T03:44:34.560Z,9.53
2018-07-12T03:45:07.111Z,10.95
2018-07-12T03:45:39.724Z,11.78
2018-07-12T03:46:12.272Z,8.83
2018-07-12T03:46:44.815Z,9.28
2018-07-12T03:47:17.364Z,8.03
2018-07-12T03:47:49.937Z,12.60
2018-07-12T03:48:22.476Z,8.20
2018-07-12T03:48:55.066Z,7.40
2018-07-12T03:49:27.720Z,8.70
2018-07-12T03:50:00.266Z,7.97
2018-07-12T03:50:32.826Z,7.78
2018-07-12T03:51:05.395Z,7.83
2018-07-12T03:51:37.930Z,6.70
2018-07-12T03:52:10.473Z,9.25
2018-07-12T03:52:43.084Z,7.85
2018-07-12T03:53:15.665Z,8.18
2018-07-12T03:53:48.227Z,8.15
2018-07-12T03:54:20.779Z,7.80
2018-07-12T03:54:53.354Z,12.98
2018-07-12T03:55:25.911Z,6.90
2018-07-12T03:55:58.463Z,7.85
2018-07-12T03:56:31.050Z,7.20
2018-07-12T03:57:03.656Z,11.93
2018-07-12T03:57:36.227Z,7.05
2018-07-12T03:58:08.825Z,7.35
2018-07-12T03:58:41.345Z,8.38
2018-07-12T03:59:13.941Z,8.05
2018-07-12T03:59:46.489Z,8.53
2018-07-12T04:00:19.057Z,8.95
2018-07-12T04:00:51.607Z,7.28
2018-07-12T04:01:24.188Z,8.18
2018-07-12T04:01:56.738Z,7.72
2018-07-12T04:02:29.555Z,7.40
2018-07-12T04:03:02.098Z,6.10
2018-07-12T04:03:34.730Z,5.60
2018-07-12T04:04:07.490Z,6.17
2018-07-12T04:04:40.049Z,7.22
2018-07-12T04:05:12.595Z,10.03
2018-07-12T04:05:45.130Z,6.17
2018-07-12T04:06:17.694Z,6.55
2018-07-12T04:06:50.261Z,5.55
2018-07-12T04:07:23.036Z,6.53
2018-07-12T04:07:55.595Z,6.30
2018-07-12T04:08:28.155Z,7.03
2018-07-12T04:09:00.705Z,5.70
2018-07-12T04:09:33.287Z,6.10
2018-07-12T04:10:05.848Z,5.92
2018-07-12T04:10:38.403Z,5.92
2018-07-12T04:11:11.016Z,6.15
2018-07-12T04:11:43.686Z,6.70
2018-07-12T04:12:16.252Z,7.90
2018-07-12T04:12:48.826Z,9.98
2018-07-12T04:13:21.384Z,5.72
2018-07-12T04:13:53.929Z,5.95
2018-07-12T04:14:26.470Z,10.25
2018-07-12T04:14:59.023Z,9.28
2018-07-12T04:15:31.586Z,6.08
2018-07-12T04:16:04.235Z,5.22
2018-07-12T04:16:36.776Z,5.15
2018-07-12T04:17:09.419Z,5.33
2018-07-12T04:17:41.963Z,5.08
2018-07-12T04:18:14.523Z,6.85
2018-07-12T04:18:47.093Z,5.05
2018-07-12T04:19:19.669Z,5.08
2018-07-12T04:19:52.239Z,5.35
2018-07-12T04:20:25.157Z,6.45
2018-07-12T04:20:57.734Z,5.37
2018-07-12T04:21:30.293Z,5.45
2018-07-12T04:22:02.877Z,4.60
2018-07-12T04:22:36.240Z,7.20
2018-07-12T04:23:08.900Z,5.67
2018-07-12T04:23:41.478Z,6.25
2018-07-12T04:24:14.195Z,5.42
2018-07-12T04:24:47.003Z,5.08
2018-07-12T04:25:21.554Z,5.10
2018-07-12T04:25:54.151Z,5.62
2018-07-12T04:26:27.048Z,6.60
2018-07-12T04:26:59.619Z,5.00
2018-07-12T04:27:32.173Z,4.47
2018-07-12T04:28:04.745Z,4.50
2018-07-12T04:28:37.302Z,4.92
2018-07-12T04:29:10.064Z,5.35
2018-07-12T04:29:42.627Z,4.80
2018-07-12T04:30:15.307Z,5.60
2018-07-12T04:30:47.869Z,6.47
2018-07-12T04:31:20.443Z,5.45
2018-07-12T04:31:53.056Z,5.20
2018-07-12T04:32:25.680Z,5.28
2018-07-12T04:32:58.275Z,5.65
2018-07-12T04:33:30.996Z,5.75
2018-07-12T04:34:03.555Z,6.47
2018-07-12T04:34:36.187Z,6.35
2018-07-12T04:35:12.039Z,5.62
2018-07-12T04:35:46.170Z,5.45
2018-07-12T04:36:18.911Z,10.03
2018-07-12T04:36:51.841Z,9.05
2018-07-12T04:37:24.509Z,8.45
2018-07-12T04:37:57.262Z,7.03
2018-07-12T04:38:29.819Z,8.05
2018-07-12T04:39:02.779Z,9.13
2018-07-12T04:39:35.451Z,5.87
2018-07-12T04:40:08.009Z,6.45
2018-07-12T04:40:40.563Z,7.55
2018-07-12T04:41:13.129Z,5.45
2018-07-12T04:41:45.908Z,4.95
2018-07-12T04:42:18.501Z,4.97
2018-07-12T04:42:51.304Z,8.73
2018-07-12T04:43:23.855Z,6.55
2018-07-12T04:43:56.444Z,6.78
2018-07-12T04:44:29.018Z,7.45
2018-07-12T04:45:01.583Z,5.72
2018-07-12T04:45:34.192Z,6.12
2018-07-12T04:46:06.753Z,5.62
2018-07-12T04:46:39.485Z,6.12
2018-07-12T04:47:12.064Z,7.12
2018-07-12T04:47:44.649Z,6.97
2018-07-12T04:48:17.251Z,5.72
2018-07-12T04:48:49.883Z,6.83
2018-07-12T04:49:22.647Z,7.87
2018-07-12T04:49:55.190Z,6.12
2018-07-12T04:50:27.735Z,6.20
2018-07-12T04:51:00.293Z,6.47
2018-07-12T04:51:32.854Z,8.38
2018-07-12T04:52:05.403Z,6.42
2018-07-12T04:52:38.036Z,7.45
2018-07-12T04:53:10.587Z,5.12
2018-07-12T04:53:43.151Z,7.47
2018-07-12T04:54:15.710Z,7.05
2018-07-12T04:54:48.786Z,6.33
2018-07-12T04:55:21.416Z,6.03
2018-07-12T04:55:54.000Z,6.55
2018-07-12T04:56:26.567Z,6.75
2018-07-12T04:56:59.125Z,7.33
2018-07-12T04:57:31.719Z,5.95
2018-07-12T04:58:04.366Z,7.92
2018-07-12T04:58:36.946Z,6.53
2018-07-12T04:59:09.535Z,7.42
2018-07-12T04:59:42.128Z,9.23
2018-07-12T05:00:14.955Z,16.55
2018-07-12T05:00:47.499Z,7.97
2018-07-12T05:01:20.683Z,7.50
2018-07-12T05:01:53.897Z,7.80
2018-07-12T05:02:26.468Z,6.47
2018-07-12T05:02:59.173Z,5.42
2018-07-12T05:03:31.875Z,7.35
2018-07-12T05:04:04.475Z,6.65
2018-07-12T05:04:37.043Z,5.60
2018-07-12T05:05:09.891Z,5.10
2018-07-12T05:05:42.445Z,6.37
2018-07-12T05:06:15.006Z,7.28
2018-07-12T05:06:48.090Z,5.85
2018-07-12T05:07:20.698Z,7.72
2018-07-12T05:07:53.244Z,7.10
2018-07-12T05:08:25.857Z,6.60
2018-07-12T05:08:58.588Z,6.62
2018-07-12T05:09:31.164Z,5.83
2018-07-12T05:10:03.747Z,7.90
2018-07-12T05:10:36.311Z,8.03
2018-07-12T05:11:08.951Z,7.47
2018-07-12T05:11:41.534Z,6.25
2018-07-12T05:12:14.476Z,6.62
2018-07-12T05:12:47.435Z,8.18
2018-07-12T05:13:20.044Z,7.67
2018-07-12T05:13:53.398Z,7.55
2018-07-12T05:14:26.012Z,12.00
2018-07-12T05:14:58.574Z,7.58
2018-07-12T05:15:31.188Z,7.00
2018-07-12T05:16:03.749Z,6.85
2018-07-12T05:16:36.310Z,6.90
2018-07-12T05:17:08.895Z,6.62
2018-07-12T05:17:41.517Z,7.25
2018-07-12T05:18:14.811Z,7.35
2018-07-12T05:18:47.433Z,6.58
2018-07-12T05:19:19.998Z,7.50
2018-07-12T05:19:52.586Z,8.60
2018-07-12T05:20:25.182Z,7.95
2018-07-12T05:20:58.062Z,6.53
2018-07-12T05:21:30.607Z,7.20
2018-07-12T05:22:03.364Z,8.28
2018-07-12T05:22:35.851Z,8.08
2018-07-12T05:23:08.646Z,7.95
2018-07-12T05:23:41.273Z,9.73
2018-07-12T05:24:13.831Z,7.85
2018-07-12T05:24:46.402Z,7.25
2018-07-12T05:25:18.961Z,7.92
2018-07-12T05:25:51.525Z,8.33
2018-07-12T05:26:24.092Z,8.60
2018-07-12T05:26:56.652Z,9.28
2018-07-12T05:27:29.212Z,8.48
2018-07-12T05:28:01.781Z,9.73
2018-07-12T05:28:34.454Z,8.40
2018-07-12T05:29:07.146Z,9.60
2018-07-12T05:29:39.725Z,11.63
2018-07-12T05:30:12.290Z,8.78
2018-07-12T05:30:44.946Z,11.38
2018-07-12T05:31:17.784Z,11.15
2018-07-12T05:31:51.216Z,9.30
2018-07-12T05:32:23.885Z,8.08
2018-07-12T05:32:56.541Z,11.95
2018-07-12T05:33:29.250Z,9.08
2018-07-12T05:34:01.859Z,8.78
2018-07-12T05:34:34.424Z,9.23
2018-07-12T05:35:07.216Z,9.18
2018-07-12T05:35:40.443Z,9.20
2018-07-12T05:36:21.034Z,12.10
2018-07-12T05:36:56.659Z,9.38
2018-07-12T05:37:30.174Z,11.18
2018-07-12T05:38:03.555Z,9.20
2018-07-12T05:38:36.882Z,10.08
2018-07-12T05:39:10.060Z,10.82
2018-07-12T05:39:44.056Z,10.03
2018-07-12T05:40:17.180Z,10.90
2018-07-12T05:40:50.723Z,10.90
2018-07-12T05:41:23.888Z,12.18
2018-07-12T05:41:57.140Z,12.20
2018-07-12T05:42:30.396Z,9.73
2018-07-12T05:43:03.673Z,10.75
2018-07-12T05:43:36.852Z,12.03
2018-07-12T05:44:09.977Z,13.65
2018-07-12T05:44:43.695Z,12.35
2018-07-12T05:45:17.200Z,12.00
2018-07-12T05:45:50.831Z,11.43
2018-07-12T05:46:24.005Z,10.72
2018-07-12T05:46:57.190Z,15.75
2018-07-12T05:47:30.347Z,14.28
2018-07-12T05:48:03.516Z,11.57
2018-07-12T05:48:36.704Z,11.33
2018-07-12T05:49:10.855Z,13.05
2018-07-12T05:49:44.069Z,11.10
2018-07-12T05:50:17.888Z,11.43
2018-07-12T05:50:51.039Z,10.88
2018-07-12T05:51:24.451Z,10.70
2018-07-12T05:51:58.557Z,11.97
2018-07-12T05:52:32.824Z,12.65
2018-07-12T05:53:06.323Z,15.98
2018-07-12T05:53:39.708Z,11.28
2018-07-12T05:54:12.901Z,12.03
2018-07-12T05:54:45.970Z,12.43
2018-07-12T05:55:19.372Z,11.97
2018-07-12T05:55:53.030Z,10.65
2018-07-12T05:56:26.260Z,10.15
2018-07-12T05:56:59.518Z,10.13
2018-07-12T05:57:32.693Z,12.85
2018-07-12T05:58:05.861Z,10.58
2018-07-12T05:58:45.545Z,10.18
2018-07-12T05:59:19.050Z,10.95
2018-07-12T05:59:52.226Z,10.68
2018-07-12T06:00:25.447Z,11.15
2018-07-12T06:00:58.585Z,8.55
2018-07-12T06:01:37.408Z,8.58
2018-07-12T06:02:16.883Z,10.65
2018-07-12T06:02:50.196Z,8.75
2018-07-12T06:03:23.354Z,8.55
2018-07-12T06:03:56.476Z,7.87
2018-07-12T06:04:29.575Z,8.80
2018-07-12T06:05:04.181Z,8.53
2018-07-12T06:05:37.575Z,7.80
2018-07-12T06:06:16.089Z,9.23
2018-07-12T06:06:49.352Z,7.50
2018-07-12T06:07:27.963Z,10.50
2018-07-12T06:08:01.232Z,8.78
2018-07-12T06:08:34.456Z,10.82
2018-07-12T06:09:09.028Z,7.92
2018-07-12T06:09:42.515Z,9.30
2018-07-12T06:10:15.624Z,9.90
2018-07-12T06:10:49.132Z,10.23
2018-07-12T06:11:22.196Z,8.95
2018-07-12T06:11:55.407Z,9.85
2018-07-12T06:12:28.592Z,13.18
2018-07-12T06:13:02.095Z,10.40
2018-07-12T06:13:35.256Z,9.70
2018-07-12T06:14:08.878Z,10.30
2018-07-12T06:14:42.036Z,11.18
2018-07-12T06:15:15.225Z,11.22
2018-07-12T06:15:48.643Z,14.60
2018-07-12T06:16:21.874Z,11.25
2018-07-12T06:16:55.131Z,12.13
2018-07-12T06:17:28.179Z,13.48
2018-07-12T06:18:01.457Z,13.13
2018-07-12T06:18:34.706Z,17.75
2018-07-12T06:19:08.186Z,12.00
2018-07-12T06:19:41.451Z,11.68
2018-07-12T06:20:14.558Z,12.85
2018-07-12T06:20:48.403Z,15.38
2018-07-12T06:21:21.615Z,10.88
2018-07-12T06:21:55.399Z,16.00
2018-07-12T06:22:28.496Z,14.83
2018-07-12T06:23:01.869Z,16.80
2018-07-12T06:23:34.971Z,13.30
2018-07-12T06:24:08.046Z,11.85
2018-07-12T06:24:41.313Z,9.50
2018-07-12T06:25:14.584Z,10.63
2018-07-12T06:25:47.697Z,15.68
2018-07-12T06:26:20.816Z,11.80
2018-07-12T06:26:54.680Z,10.23
2018-07-12T06:27:27.787Z,12.63
2018-07-12T06:28:00.962Z,15.30
2018-07-12T06:28:34.155Z,12.73
2018-07-12T06:29:07.390Z,18.85
2018-07-12T06:29:40.507Z,9.70
2018-07-12T06:30:13.754Z,12.55
2018-07-12T06:30:47.028Z,12.73
2018-07-12T06:31:20.093Z,15.98
2018-07-12T06:31:53.616Z,13.55
2018-07-12T06:32:26.807Z,15.18
2018-07-12T06:32:59.870Z,13.78
2018-07-12T06:33:33.099Z,13.98
2018-07-12T06:34:06.276Z,13.48
2018-07-12T06:34:39.858Z,14.03
2018-07-12T06:35:12.935Z,16.17
2018-07-12T06:35:46.119Z,12.30
2018-07-12T06:36:19.286Z,11.88
2018-07-12T06:36:52.368Z,15.68
2018-07-12T06:37:25.613Z,13.65
2018-07-12T06:37:58.802Z,13.35
2018-07-12T06:38:31.981Z,13.28
2018-07-12T06:39:06.707Z,16.42
2018-07-12T06:39:39.896Z,14.05
2018-07-12T06:40:13.656Z,13.65
2018-07-12T06:40:47.066Z,14.28
2018-07-12T06:41:20.343Z,16.40
2018-07-12T06:41:53.916Z,13.05
2018-07-12T06:42:27.081Z,13.13
2018-07-12T06:43:06.520Z,13.30
2018-07-12T06:43:39.796Z,13.62
2018-07-12T06:44:12.900Z,14.10
2018-07-12T06:44:45.971Z,14.70
2018-07-12T06:45:19.454Z,15.05
2018-07-12T06:45:52.835Z,18.23
2018-07-12T06:46:27.041Z,15.45
2018-07-12T06:47:00.115Z,14.83
2018-07-12T06:47:33.300Z,14.43
2018-07-12T06:48:06.461Z,12.43
2018-07-12T06:48:39.771Z,13.88
2018-07-12T06:49:13.115Z,16.07
2018-07-12T06:49:46.173Z,12.90
2018-07-12T06:50:19.278Z,13.58
2018-07-12T06:50:52.465Z,16.27
2018-07-12T06:51:25.613Z,15.20
2018-07-12T06:51:58.690Z,14.18
2018-07-12T06:52:32.179Z,13.13
2018-07-12T06:53:05.925Z,13.90
2018-07-12T06:53:40.212Z,14.40
2018-07-12T06:54:14.124Z,12.25
2018-07-12T06:54:47.841Z,16.20
2018-07-12T06:55:20.966Z,12.95
2018-07-12T06:55:54.936Z,20.68
2018-07-12T06:56:28.007Z,12.50
2018-07-12T06:57:01.099Z,13.22
2018-07-12T06:57:34.225Z,12.82
2018-07-12T06:58:07.603Z,14.00
2018-07-12T06:58:40.975Z,13.53
2018-07-12T06:59:14.023Z,13.32
2018-07-12T06:59:47.623Z,14.83
2018-07-12T07:00:20.802Z,14.58
2018-07-12T07:00:53.894Z,12.33
2018-07-12T07:01:27.342Z,14.55
2018-07-12T07:02:00.975Z,14.68
2018-07-12T07:02:34.084Z,15.80
2018-07-12T07:03:07.206Z,42.03
2018-07-12T07:03:40.367Z,14.87
2018-07-12T07:04:13.850Z,14.13
2018-07-12T07:04:47.025Z,14.23
2018-07-12T07:05:20.207Z,13.10
2018-07-12T07:05:53.425Z,11.45
2018-07-12T07:06:26.645Z,12.58
2018-07-12T07:06:59.887Z,11.80
2018-07-12T07:07:33.024Z,10.30
2018-07-12T07:08:06.226Z,12.10
2018-07-12T07:08:39.293Z,12.50
2018-07-12T07:09:12.432Z,13.60
2018-07-12T07:09:45.607Z,12.55
2018-07-12T07:10:19.215Z,9.55
2018-07-12T07:10:52.603Z,10.82
2018-07-12T07:11:25.755Z,13.25
2018-07-12T07:11:59.097Z,12.13
2018-07-12T07:12:32.464Z,10.88
2018-07-12T07:13:05.696Z,11.10